Terminal Aerodrome Forecast
Issued by NWS Pocatello, ID

Home | Current Version | Previous Version | Text Only | Print | Product List | Glossary On
Versions: 1 2 3 4 5 6 7 8 9 10 11 12 13 14 15 16 17 18 19 20
000
FTUS45 KPIH 161120
TAFPIH
TAF
KPIH 161120Z 1612/1712 21008KT 2SM -SN BR BKN025 OVC040
     FM161700 26010KT 4SM -SN BR SCT008 OVC015
     FM162100 28008KT P6SM VCSH BKN025 OVC050
     FM170600 24007KT P6SM SCT008 OVC015=

USA.gov is the U.S. government's official web portal to all federal, state and local government web resources and services.